sensor_id;sensor_type;location;lat;lon;timestamp;P1;durP1;ratioP1;P2;durP2;ratioP2
23716;SDS011;22094;52.130;5.598;2023-07-28T00:00:24;29.50;;;18.88;;
23716;SDS011;22094;52.130;5.598;2023-07-28T00:02:49;33.30;;;19.13;;
23716;SDS011;22094;52.130;5.598;2023-07-28T00:05:15;35.42;;;18.83;;
23716;SDS011;22094;52.130;5.598;2023-07-28T00:07:40;32.53;;;19.38;;
23716;SDS011;22094;52.130;5.598;2023-07-28T00:10:06;32.97;;;18.60;;
23716;SDS011;22094;52.130;5.598;2023-07-28T00:12:32;35.03;;;19.42;;
23716;SDS011;22094;52.130;5.598;2023-07-28T00:14:57;31.38;;;18.52;;
23716;SDS011;22094;52.130;5.598;2023-07-28T00:17:25;31.55;;;18.67;;
23716;SDS011;22094;52.130;5.598;2023-07-28T00:19:50;31.60;;;19.45;;
23716;SDS011;22094;52.130;5.598;2023-07-28T00:22:16;34.30;;;19.92;;
23716;SDS011;22094;52.130;5.598;2023-07-28T00:24:42;33.55;;;19.88;;
23716;SDS011;22094;52.130;5.598;2023-07-28T00:27:07;33.63;;;19.83;;
23716;SDS011;22094;52.130;5.598;2023-07-28T00:29:33;34.65;;;20.73;;
23716;SDS011;22094;52.130;5.598;2023-07-28T00:31:58;35.55;;;21.25;;
23716;SDS011;22094;52.130;5.598;2023-07-28T00:34:24;34.10;;;21.30;;
23716;SDS011;22094;52.130;5.598;2023-07-28T00:36:49;34.97;;;21.45;;
23716;SDS011;22094;52.130;5.598;2023-07-28T00:39:15;34.50;;;20.45;;
23716;SDS011;22094;52.130;5.598;2023-07-28T00:41:41;37.95;;;22.05;;
23716;SDS011;22094;52.130;5.598;2023-07-28T00:44:06;38.58;;;22.40;;
23716;SDS011;22094;52.130;5.598;2023-07-28T00:46:32;36.58;;;21.92;;
23716;SDS011;22094;52.130;5.598;2023-07-28T00:48:57;40.03;;;22.17;;
23716;SDS011;22094;52.130;5.598;2023-07-28T00:51:23;36.22;;;20.65;;
23716;SDS011;22094;52.130;5.598;2023-07-28T00:53:49;34.58;;;20.63;;
23716;SDS011;22094;52.130;5.598;2023-07-28T00:56:18;37.22;;;21.35;;
23716;SDS011;22094;52.130;5.598;2023-07-28T00:58:44;37.30;;;20.73;;
23716;SDS011;22094;52.130;5.598;2023-07-28T01:01:09;37.40;;;20.75;;
23716;SDS011;22094;52.130;5.598;2023-07-28T01:03:35;38.13;;;22.02;;
23716;SDS011;22094;52.130;5.598;2023-07-28T01:08:51;39.90;;;21.83;;
23716;SDS011;22094;52.130;5.598;2023-07-28T01:11:31;36.60;;;21.92;;
23716;SDS011;22094;52.130;5.598;2023-07-28T01:13:56;35.63;;;21.33;;
23716;SDS011;22094;52.130;5.598;2023-07-28T01:16:22;37.80;;;21.67;;
23716;SDS011;22094;52.130;5.598;2023-07-28T01:18:48;35.50;;;21.65;;
23716;SDS011;22094;52.130;5.598;2023-07-28T01:21:17;36.30;;;20.60;;
23716;SDS011;22094;52.130;5.598;2023-07-28T01:26:36;36.47;;;19.63;;
23716;SDS011;22094;52.130;5.598;2023-07-28T01:29:02;36.95;;;19.33;;
23716;SDS011;22094;52.130;5.598;2023-07-28T01:31:28;34.60;;;18.60;;
23716;SDS011;22094;52.130;5.598;2023-07-28T01:33:54;36.08;;;18.25;;
23716;SDS011;22094;52.130;5.598;2023-07-28T01:36:20;29.58;;;17.85;;
23716;SDS011;22094;52.130;5.598;2023-07-28T01:38:45;36.13;;;18.27;;
23716;SDS011;22094;52.130;5.598;2023-07-28T01:41:11;34.60;;;17.85;;
23716;SDS011;22094;52.130;5.598;2023-07-28T01:43:37;32.47;;;17.88;;
23716;SDS011;22094;52.130;5.598;2023-07-28T01:46:03;33.25;;;17.83;;
23716;SDS011;22094;52.130;5.598;2023-07-28T01:48:28;32.83;;;17.73;;
23716;SDS011;22094;52.130;5.598;2023-07-28T01:50:54;32.50;;;18.50;;
23716;SDS011;22094;52.130;5.598;2023-07-28T01:53:20;32.22;;;18.25;;
23716;SDS011;22094;52.130;5.598;2023-07-28T01:55:45;33.00;;;19.05;;
23716;SDS011;22094;52.130;5.598;2023-07-28T01:58:11;33.63;;;19.33;;
23716;SDS011;22094;52.130;5.598;2023-07-28T02:00:36;32.60;;;19.42;;
23716;SDS011;22094;52.130;5.598;2023-07-28T02:03:02;31.83;;;19.25;;
23716;SDS011;22094;52.130;5.598;2023-07-28T02:05:28;37.38;;;19.58;;
23716;SDS011;22094;52.130;5.598;2023-07-28T02:07:55;40.47;;;21.40;;
23716;SDS011;22094;52.130;5.598;2023-07-28T02:10:25;39.60;;;21.35;;
23716;SDS011;22094;52.130;5.598;2023-07-28T02:12:52;40.80;;;22.17;;
23716;SDS011;22094;52.130;5.598;2023-07-28T02:15:17;42.42;;;23.02;;
23716;SDS011;22094;52.130;5.598;2023-07-28T02:17:43;40.40;;;21.90;;
23716;SDS011;22094;52.130;5.598;2023-07-28T02:20:09;36.92;;;20.70;;
23716;SDS011;22094;52.130;5.598;2023-07-28T02:22:38;40.42;;;22.70;;
23716;SDS011;22094;52.130;5.598;2023-07-28T02:25:07;42.70;;;22.90;;
23716;SDS011;22094;52.130;5.598;2023-07-28T02:27:33;41.50;;;23.67;;
23716;SDS011;22094;52.130;5.598;2023-07-28T02:29:59;43.03;;;22.77;;
23716;SDS011;22094;52.130;5.598;2023-07-28T02:32:25;36.28;;;22.20;;
23716;SDS011;22094;52.130;5.598;2023-07-28T02:34:51;38.22;;;22.17;;
23716;SDS011;22094;52.130;5.598;2023-07-28T02:37:17;40.13;;;23.15;;
23716;SDS011;22094;52.130;5.598;2023-07-28T02:39:42;46.60;;;23.02;;
23716;SDS011;22094;52.130;5.598;2023-07-28T02:42:08;42.28;;;22.50;;
23716;SDS011;22094;52.130;5.598;2023-07-28T02:44:34;44.17;;;23.88;;
23716;SDS011;22094;52.130;5.598;2023-07-28T02:46:59;43.20;;;23.25;;
23716;SDS011;22094;52.130;5.598;2023-07-28T02:49:25;41.05;;;22.02;;
23716;SDS011;22094;52.130;5.598;2023-07-28T02:51:51;48.17;;;25.30;;
23716;SDS011;22094;52.130;5.598;2023-07-28T02:54:16;50.78;;;24.40;;
23716;SDS011;22094;52.130;5.598;2023-07-28T02:56:42;53.03;;;25.23;;
23716;SDS011;22094;52.130;5.598;2023-07-28T02:59:07;51.22;;;24.77;;
23716;SDS011;22094;52.130;5.598;2023-07-28T03:01:33;49.90;;;25.00;;
23716;SDS011;22094;52.130;5.598;2023-07-28T03:04:00;55.20;;;26.33;;
23716;SDS011;22094;52.130;5.598;2023-07-28T03:06:26;57.03;;;25.67;;
23716;SDS011;22094;52.130;5.598;2023-07-28T03:08:52;50.17;;;25.27;;
23716;SDS011;22094;52.130;5.598;2023-07-28T03:11:18;55.15;;;25.55;;
23716;SDS011;22094;52.130;5.598;2023-07-28T03:13:43;51.92;;;26.98;;
23716;SDS011;22094;52.130;5.598;2023-07-28T03:16:09;59.20;;;27.08;;
23716;SDS011;22094;52.130;5.598;2023-07-28T03:18:34;51.83;;;26.15;;
23716;SDS011;22094;52.130;5.598;2023-07-28T03:21:00;54.13;;;25.92;;
23716;SDS011;22094;52.130;5.598;2023-07-28T03:23:26;57.80;;;26.70;;
23716;SDS011;22094;52.130;5.598;2023-07-28T03:25:52;56.95;;;26.73;;
23716;SDS011;22094;52.130;5.598;2023-07-28T03:28:17;58.40;;;27.92;;
23716;SDS011;22094;52.130;5.598;2023-07-28T03:30:43;59.50;;;26.55;;
23716;SDS011;22094;52.130;5.598;2023-07-28T03:33:09;57.30;;;27.63;;
23716;SDS011;22094;52.130;5.598;2023-07-28T03:35:34;57.10;;;27.05;;
23716;SDS011;22094;52.130;5.598;2023-07-28T03:38:00;60.45;;;27.45;;
23716;SDS011;22094;52.130;5.598;2023-07-28T03:40:25;56.33;;;27.02;;
23716;SDS011;22094;52.130;5.598;2023-07-28T03:42:51;60.30;;;26.23;;
23716;SDS011;22094;52.130;5.598;2023-07-28T03:45:17;63.25;;;27.77;;
23716;SDS011;22094;52.130;5.598;2023-07-28T03:47:43;59.67;;;27.80;;
23716;SDS011;22094;52.130;5.598;2023-07-28T03:50:09;66.97;;;27.65;;
23716;SDS011;22094;52.130;5.598;2023-07-28T03:52:34;62.70;;;28.13;;
23716;SDS011;22094;52.130;5.598;2023-07-28T03:55:01;67.55;;;28.55;;
23716;SDS011;22094;52.130;5.598;2023-07-28T03:57:27;61.40;;;27.73;;
23716;SDS011;22094;52.130;5.598;2023-07-28T03:59:53;69.22;;;29.35;;
23716;SDS011;22094;52.130;5.598;2023-07-28T04:02:19;75.50;;;29.88;;
23716;SDS011;22094;52.130;5.598;2023-07-28T04:04:44;66.82;;;29.58;;
23716;SDS011;22094;52.130;5.598;2023-07-28T04:07:10;66.55;;;29.60;;
23716;SDS011;22094;52.130;5.598;2023-07-28T04:09:35;68.13;;;28.58;;
23716;SDS011;22094;52.130;5.598;2023-07-28T04:12:01;65.28;;;29.77;;
23716;SDS011;22094;52.130;5.598;2023-07-28T04:14:27;64.00;;;28.77;;
23716;SDS011;22094;52.130;5.598;2023-07-28T04:16:53;72.38;;;29.42;;
23716;SDS011;22094;52.130;5.598;2023-07-28T04:19:18;68.70;;;30.02;;
23716;SDS011;22094;52.130;5.598;2023-07-28T04:21:44;62.35;;;29.05;;
23716;SDS011;22094;52.130;5.598;2023-07-28T04:24:10;71.25;;;30.80;;
23716;SDS011;22094;52.130;5.598;2023-07-28T04:26:36;70.10;;;29.92;;
23716;SDS011;22094;52.130;5.598;2023-07-28T04:29:02;71.57;;;30.27;;
23716;SDS011;22094;52.130;5.598;2023-07-28T04:31:27;68.40;;;29.38;;
23716;SDS011;22094;52.130;5.598;2023-07-28T04:33:53;72.13;;;30.98;;
23716;SDS011;22094;52.130;5.598;2023-07-28T04:36:19;67.00;;;29.63;;
23716;SDS011;22094;52.130;5.598;2023-07-28T04:38:44;71.15;;;29.70;;
23716;SDS011;22094;52.130;5.598;2023-07-28T04:41:10;71.55;;;29.73;;
23716;SDS011;22094;52.130;5.598;2023-07-28T04:43:35;78.15;;;31.60;;
23716;SDS011;22094;52.130;5.598;2023-07-28T04:46:01;73.97;;;30.75;;
23716;SDS011;22094;52.130;5.598;2023-07-28T04:48:27;66.80;;;30.42;;
23716;SDS011;22094;52.130;5.598;2023-07-28T04:50:52;74.35;;;31.85;;
23716;SDS011;22094;52.130;5.598;2023-07-28T04:53:19;77.07;;;30.52;;
23716;SDS011;22094;52.130;5.598;2023-07-28T04:55:44;69.38;;;29.63;;
23716;SDS011;22094;52.130;5.598;2023-07-28T04:58:10;67.53;;;29.17;;
23716;SDS011;22094;52.130;5.598;2023-07-28T05:00:36;72.93;;;30.27;;
23716;SDS011;22094;52.130;5.598;2023-07-28T05:03:01;74.20;;;30.60;;
23716;SDS011;22094;52.130;5.598;2023-07-28T05:05:28;68.65;;;29.33;;
23716;SDS011;22094;52.130;5.598;2023-07-28T05:07:54;78.45;;;31.08;;
23716;SDS011;22094;52.130;5.598;2023-07-28T05:10:20;75.15;;;30.55;;
23716;SDS011;22094;52.130;5.598;2023-07-28T05:12:45;69.72;;;29.40;;
23716;SDS011;22094;52.130;5.598;2023-07-28T05:15:13;72.40;;;29.90;;
23716;SDS011;22094;52.130;5.598;2023-07-28T05:17:40;69.82;;;29.60;;
23716;SDS011;22094;52.130;5.598;2023-07-28T05:20:05;74.28;;;29.75;;
23716;SDS011;22094;52.130;5.598;2023-07-28T05:22:31;69.10;;;29.90;;
23716;SDS011;22094;52.130;5.598;2023-07-28T05:24:57;67.13;;;28.30;;
23716;SDS011;22094;52.130;5.598;2023-07-28T05:27:23;70.75;;;30.10;;
23716;SDS011;22094;52.130;5.598;2023-07-28T05:29:49;63.78;;;28.38;;
23716;SDS011;22094;52.130;5.598;2023-07-28T05:32:14;68.95;;;29.08;;
23716;SDS011;22094;52.130;5.598;2023-07-28T05:34:43;63.45;;;28.10;;
23716;SDS011;22094;52.130;5.598;2023-07-28T05:37:09;60.53;;;28.52;;
23716;SDS011;22094;52.130;5.598;2023-07-28T05:39:35;52.15;;;26.83;;
23716;SDS011;22094;52.130;5.598;2023-07-28T05:42:01;60.35;;;27.60;;
23716;SDS011;22094;52.130;5.598;2023-07-28T05:44:27;45.70;;;25.60;;
23716;SDS011;22094;52.130;5.598;2023-07-28T05:46:53;50.95;;;25.60;;
23716;SDS011;22094;52.130;5.598;2023-07-28T05:49:19;48.30;;;24.67;;
23716;SDS011;22094;52.130;5.598;2023-07-28T05:51:44;48.10;;;24.10;;
23716;SDS011;22094;52.130;5.598;2023-07-28T05:54:11;48.38;;;23.73;;
23716;SDS011;22094;52.130;5.598;2023-07-28T05:56:39;40.00;;;22.92;;
23716;SDS011;22094;52.130;5.598;2023-07-28T05:59:05;40.25;;;21.92;;
23716;SDS011;22094;52.130;5.598;2023-07-28T06:01:31;39.03;;;21.60;;
23716;SDS011;22094;52.130;5.598;2023-07-28T06:03:56;38.58;;;22.55;;
23716;SDS011;22094;52.130;5.598;2023-07-28T06:06:24;37.88;;;21.73;;
23716;SDS011;22094;52.130;5.598;2023-07-28T06:08:50;37.05;;;20.60;;
23716;SDS011;22094;52.130;5.598;2023-07-28T06:11:16;34.85;;;19.88;;
23716;SDS011;22094;52.130;5.598;2023-07-28T06:13:41;36.28;;;20.27;;
23716;SDS011;22094;52.130;5.598;2023-07-28T06:16:07;30.10;;;20.42;;
23716;SDS011;22094;52.130;5.598;2023-07-28T06:18:33;34.38;;;20.30;;
23716;SDS011;22094;52.130;5.598;2023-07-28T06:20:58;32.60;;;19.48;;
23716;SDS011;22094;52.130;5.598;2023-07-28T06:23:24;30.85;;;19.08;;
23716;SDS011;22094;52.130;5.598;2023-07-28T06:25:50;29.25;;;19.83;;
23716;SDS011;22094;52.130;5.598;2023-07-28T06:28:16;30.77;;;19.25;;
23716;SDS011;22094;52.130;5.598;2023-07-28T06:30:42;31.02;;;20.08;;
23716;SDS011;22094;52.130;5.598;2023-07-28T06:33:08;33.08;;;19.55;;
23716;SDS011;22094;52.130;5.598;2023-07-28T06:35:34;26.23;;;19.13;;
23716;SDS011;22094;52.130;5.598;2023-07-28T06:38:01;29.27;;;19.10;;
23716;SDS011;22094;52.130;5.598;2023-07-28T06:40:27;31.80;;;20.08;;
23716;SDS011;22094;52.130;5.598;2023-07-28T06:42:53;30.02;;;19.30;;
23716;SDS011;22094;52.130;5.598;2023-07-28T06:45:19;28.88;;;19.02;;
23716;SDS011;22094;52.130;5.598;2023-07-28T06:47:45;28.40;;;18.27;;
23716;SDS011;22094;52.130;5.598;2023-07-28T06:50:11;27.25;;;18.00;;
23716;SDS011;22094;52.130;5.598;2023-07-28T06:52:37;23.73;;;17.90;;
23716;SDS011;22094;52.130;5.598;2023-07-28T06:55:03;24.17;;;17.98;;
23716;SDS011;22094;52.130;5.598;2023-07-28T06:57:29;27.63;;;17.80;;
23716;SDS011;22094;52.130;5.598;2023-07-28T06:59:55;25.33;;;17.80;;
23716;SDS011;22094;52.130;5.598;2023-07-28T07:02:21;26.77;;;18.20;;
23716;SDS011;22094;52.130;5.598;2023-07-28T07:04:47;25.08;;;17.40;;
23716;SDS011;22094;52.130;5.598;2023-07-28T07:07:13;26.52;;;18.90;;
23716;SDS011;22094;52.130;5.598;2023-07-28T07:09:38;24.80;;;18.75;;
23716;SDS011;22094;52.130;5.598;2023-07-28T07:12:05;29.90;;;18.73;;
23716;SDS011;22094;52.130;5.598;2023-07-28T07:14:32;28.52;;;18.75;;
23716;SDS011;22094;52.130;5.598;2023-07-28T07:16:58;24.80;;;19.02;;
23716;SDS011;22094;52.130;5.598;2023-07-28T07:19:24;27.35;;;19.40;;
23716;SDS011;22094;52.130;5.598;2023-07-28T07:21:50;26.20;;;19.35;;
23716;SDS011;22094;52.130;5.598;2023-07-28T07:24:16;32.55;;;19.40;;
23716;SDS011;22094;52.130;5.598;2023-07-28T07:26:41;28.67;;;19.10;;
23716;SDS011;22094;52.130;5.598;2023-07-28T07:29:07;29.33;;;18.90;;
23716;SDS011;22094;52.130;5.598;2023-07-28T07:31:34;32.10;;;19.42;;
23716;SDS011;22094;52.130;5.598;2023-07-28T07:34:00;25.30;;;17.85;;
23716;SDS011;22094;52.130;5.598;2023-07-28T07:36:27;25.95;;;16.90;;
23716;SDS011;22094;52.130;5.598;2023-07-28T07:38:52;26.35;;;18.02;;
23716;SDS011;22094;52.130;5.598;2023-07-28T07:41:18;27.38;;;17.65;;
23716;SDS011;22094;52.130;5.598;2023-07-28T07:43:47;23.17;;;16.42;;
23716;SDS011;22094;52.130;5.598;2023-07-28T07:46:15;24.23;;;16.83;;
23716;SDS011;22094;52.130;5.598;2023-07-28T07:48:41;23.23;;;16.05;;
23716;SDS011;22094;52.130;5.598;2023-07-28T07:51:07;21.80;;;14.15;;
23716;SDS011;22094;52.130;5.598;2023-07-28T07:53:33;23.00;;;13.05;;
23716;SDS011;22094;52.130;5.598;2023-07-28T07:56:01;18.02;;;12.88;;
23716;SDS011;22094;52.130;5.598;2023-07-28T07:58:28;20.65;;;12.27;;
23716;SDS011;22094;52.130;5.598;2023-07-28T08:00:54;20.17;;;12.73;;
23716;SDS011;22094;52.130;5.598;2023-07-28T08:03:20;18.48;;;11.57;;
23716;SDS011;22094;52.130;5.598;2023-07-28T08:05:46;19.92;;;11.50;;
23716;SDS011;22094;52.130;5.598;2023-07-28T08:08:12;21.45;;;11.85;;
23716;SDS011;22094;52.130;5.598;2023-07-28T08:10:42;19.83;;;11.63;;
23716;SDS011;22094;52.130;5.598;2023-07-28T08:13:08;15.73;;;11.05;;
23716;SDS011;22094;52.130;5.598;2023-07-28T08:15:33;14.75;;;10.93;;
23716;SDS011;22094;52.130;5.598;2023-07-28T08:17:59;18.67;;;11.30;;
23716;SDS011;22094;52.130;5.598;2023-07-28T08:20:25;20.15;;;10.60;;
23716;SDS011;22094;52.130;5.598;2023-07-28T08:22:50;18.05;;;10.50;;
23716;SDS011;22094;52.130;5.598;2023-07-28T08:25:16;17.60;;;11.02;;
23716;SDS011;22094;52.130;5.598;2023-07-28T08:27:42;14.15;;;10.02;;
23716;SDS011;22094;52.130;5.598;2023-07-28T08:30:08;14.75;;;10.02;;
23716;SDS011;22094;52.130;5.598;2023-07-28T08:32:34;16.05;;;10.32;;
23716;SDS011;22094;52.130;5.598;2023-07-28T08:35:00;15.93;;;9.20;;
23716;SDS011;22094;52.130;5.598;2023-07-28T08:37:25;14.07;;;8.50;;
23716;SDS011;22094;52.130;5.598;2023-07-28T08:39:52;13.60;;;8.02;;
23716;SDS011;22094;52.130;5.598;2023-07-28T08:42:18;12.75;;;7.75;;
23716;SDS011;22094;52.130;5.598;2023-07-28T08:44:45;11.27;;;6.97;;
23716;SDS011;22094;52.130;5.598;2023-07-28T08:47:12;14.10;;;6.95;;
23716;SDS011;22094;52.130;5.598;2023-07-28T08:49:37;11.90;;;6.25;;
23716;SDS011;22094;52.130;5.598;2023-07-28T08:52:04;14.55;;;7.22;;
23716;SDS011;22094;52.130;5.598;2023-07-28T08:54:30;11.73;;;6.68;;
23716;SDS011;22094;52.130;5.598;2023-07-28T08:56:58;13.10;;;6.38;;
23716;SDS011;22094;52.130;5.598;2023-07-28T08:59:27;13.00;;;6.70;;
23716;SDS011;22094;52.130;5.598;2023-07-28T09:01:55;7.93;;;5.78;;
23716;SDS011;22094;52.130;5.598;2023-07-28T09:04:24;12.93;;;5.78;;
23716;SDS011;22094;52.130;5.598;2023-07-28T09:06:50;9.48;;;5.70;;
23716;SDS011;22094;52.130;5.598;2023-07-28T09:09:16;8.50;;;5.25;;
23716;SDS011;22094;52.130;5.598;2023-07-28T09:11:45;9.88;;;5.60;;
23716;SDS011;22094;52.130;5.598;2023-07-28T09:14:12;11.52;;;5.35;;
23716;SDS011;22094;52.130;5.598;2023-07-28T09:16:39;11.25;;;5.43;;
23716;SDS011;22094;52.130;5.598;2023-07-28T09:19:06;7.30;;;4.30;;
23716;SDS011;22094;52.130;5.598;2023-07-28T09:21:32;8.65;;;4.57;;
23716;SDS011;22094;52.130;5.598;2023-07-28T09:24:03;7.78;;;4.38;;
23716;SDS011;22094;52.130;5.598;2023-07-28T09:26:41;7.38;;;3.70;;
23716;SDS011;22094;52.130;5.598;2023-07-28T09:29:17;7.93;;;3.22;;
23716;SDS011;22094;52.130;5.598;2023-07-28T09:31:46;6.65;;;3.30;;
23716;SDS011;22094;52.130;5.598;2023-07-28T09:34:22;6.75;;;3.40;;
23716;SDS011;22094;52.130;5.598;2023-07-28T09:36:53;7.00;;;3.40;;
23716;SDS011;22094;52.130;5.598;2023-07-28T09:39:22;7.43;;;3.42;;
23716;SDS011;22094;52.130;5.598;2023-07-28T09:41:49;5.30;;;3.50;;
23716;SDS011;22094;52.130;5.598;2023-07-28T09:44:15;7.22;;;3.38;;
23716;SDS011;22094;52.130;5.598;2023-07-28T09:46:51;5.03;;;3.50;;
23716;SDS011;22094;52.130;5.598;2023-07-28T09:49:22;5.65;;;3.42;;
23716;SDS011;22094;52.130;5.598;2023-07-28T09:51:54;5.47;;;3.63;;
23716;SDS011;22094;52.130;5.598;2023-07-28T09:54:25;7.13;;;3.25;;
23716;SDS011;22094;52.130;5.598;2023-07-28T09:56:55;5.03;;;3.70;;
23716;SDS011;22094;52.130;5.598;2023-07-28T09:59:22;8.02;;;4.10;;
23716;SDS011;22094;52.130;5.598;2023-07-28T10:02:01;7.22;;;3.80;;
23716;SDS011;22094;52.130;5.598;2023-07-28T10:04:28;6.25;;;3.58;;
23716;SDS011;22094;52.130;5.598;2023-07-28T10:06:54;8.70;;;4.00;;
23716;SDS011;22094;52.130;5.598;2023-07-28T10:09:23;5.25;;;3.30;;
23716;SDS011;22094;52.130;5.598;2023-07-28T10:11:50;6.70;;;3.65;;
23716;SDS011;22094;52.130;5.598;2023-07-28T10:14:33;6.03;;;3.50;;
23716;SDS011;22094;52.130;5.598;2023-07-28T10:17:03;6.32;;;3.55;;
23716;SDS011;22094;52.130;5.598;2023-07-28T10:19:29;5.82;;;3.70;;
23716;SDS011;22094;52.130;5.598;2023-07-28T10:21:59;4.88;;;3.60;;
23716;SDS011;22094;52.130;5.598;2023-07-28T10:29:59;5.75;;;3.17;;
23716;SDS011;22094;52.130;5.598;2023-07-28T10:32:26;7.13;;;3.67;;
23716;SDS011;22094;52.130;5.598;2023-07-28T10:35:06;6.20;;;4.05;;
23716;SDS011;22094;52.130;5.598;2023-07-28T10:37:32;8.13;;;4.05;;
23716;SDS011;22094;52.130;5.598;2023-07-28T10:40:41;4.95;;;3.83;;
23716;SDS011;22094;52.130;5.598;2023-07-28T10:42:59;6.95;;;3.58;;
23716;SDS011;22094;52.130;5.598;2023-07-28T10:45:26;6.25;;;3.50;;
23716;SDS011;22094;52.130;5.598;2023-07-28T10:47:55;5.55;;;3.65;;
23716;SDS011;22094;52.130;5.598;2023-07-28T10:50:26;8.07;;;4.78;;
23716;SDS011;22094;52.130;5.598;2023-07-28T10:52:53;8.57;;;4.18;;
23716;SDS011;22094;52.130;5.598;2023-07-28T10:55:20;7.68;;;4.85;;
23716;SDS011;22094;52.130;5.598;2023-07-28T10:57:49;10.52;;;6.07;;
23716;SDS011;22094;52.130;5.598;2023-07-28T11:00:20;8.88;;;6.25;;
23716;SDS011;22094;52.130;5.598;2023-07-28T11:02:48;11.57;;;6.70;;
23716;SDS011;22094;52.130;5.598;2023-07-28T11:05:25;10.75;;;6.82;;
23716;SDS011;22094;52.130;5.598;2023-07-28T11:07:53;9.93;;;6.90;;
23716;SDS011;22094;52.130;5.598;2023-07-28T11:10:20;11.50;;;7.18;;
23716;SDS011;22094;52.130;5.598;2023-07-28T11:12:49;8.45;;;5.88;;
23716;SDS011;22094;52.130;5.598;2023-07-28T11:15:16;10.68;;;6.03;;
23716;SDS011;22094;52.130;5.598;2023-07-28T11:17:47;9.10;;;7.32;;
23716;SDS011;22094;52.130;5.598;2023-07-28T11:20:18;11.00;;;8.10;;
23716;SDS011;22094;52.130;5.598;2023-07-28T11:25:21;10.35;;;6.97;;
23716;SDS011;22094;52.130;5.598;2023-07-28T11:27:49;11.10;;;7.47;;
23716;SDS011;22094;52.130;5.598;2023-07-28T11:30:16;11.88;;;9.20;;
23716;SDS011;22094;52.130;5.598;2023-07-28T11:32:51;13.23;;;9.45;;
23716;SDS011;22094;52.130;5.598;2023-07-28T11:35:31;12.30;;;9.77;;
23716;SDS011;22094;52.130;5.598;2023-07-28T11:37:57;14.13;;;10.50;;
23716;SDS011;22094;52.130;5.598;2023-07-28T11:40:34;15.02;;;11.25;;
23716;SDS011;22094;52.130;5.598;2023-07-28T11:43:01;14.35;;;10.63;;
23716;SDS011;22094;52.130;5.598;2023-07-28T11:45:30;16.95;;;11.48;;
23716;SDS011;22094;52.130;5.598;2023-07-28T11:50:25;16.40;;;11.00;;
23716;SDS011;22094;52.130;5.598;2023-07-28T11:55:45;13.55;;;8.90;;
23716;SDS011;22094;52.130;5.598;2023-07-28T11:58:11;12.18;;;7.63;;
23716;SDS011;22094;52.130;5.598;2023-07-28T12:00:39;11.40;;;8.75;;
23716;SDS011;22094;52.130;5.598;2023-07-28T12:03:08;12.45;;;10.10;;
23716;SDS011;22094;52.130;5.598;2023-07-28T12:05:36;14.80;;;10.55;;
23716;SDS011;22094;52.130;5.598;2023-07-28T12:08:02;14.27;;;10.18;;
23716;SDS011;22094;52.130;5.598;2023-07-28T12:10:29;10.27;;;7.75;;
23716;SDS011;22094;52.130;5.598;2023-07-28T12:12:57;10.93;;;7.90;;
23716;SDS011;22094;52.130;5.598;2023-07-28T12:15:28;10.77;;;7.40;;
23716;SDS011;22094;52.130;5.598;2023-07-28T12:18:00;10.45;;;6.88;;
23716;SDS011;22094;52.130;5.598;2023-07-28T12:20:41;9.27;;;6.43;;
23716;SDS011;22094;52.130;5.598;2023-07-28T12:23:11;8.43;;;6.03;;
23716;SDS011;22094;52.130;5.598;2023-07-28T12:25:39;8.90;;;5.82;;
23716;SDS011;22094;52.130;5.598;2023-07-28T12:28:05;7.85;;;4.90;;
23716;SDS011;22094;52.130;5.598;2023-07-28T12:30:32;8.13;;;4.82;;
23716;SDS011;22094;52.130;5.598;2023-07-28T12:32:58;6.75;;;4.78;;
23716;SDS011;22094;52.130;5.598;2023-07-28T12:35:25;8.15;;;4.90;;
23716;SDS011;22094;52.130;5.598;2023-07-28T12:37:55;8.25;;;4.70;;
23716;SDS011;22094;52.130;5.598;2023-07-28T12:40:22;8.48;;;5.15;;
23716;SDS011;22094;52.130;5.598;2023-07-28T12:42:48;6.95;;;5.18;;
23716;SDS011;22094;52.130;5.598;2023-07-28T12:45:14;6.55;;;5.28;;
23716;SDS011;22094;52.130;5.598;2023-07-28T12:47:43;5.30;;;4.65;;
23716;SDS011;22094;52.130;5.598;2023-07-28T12:50:09;7.20;;;4.55;;
23716;SDS011;22094;52.130;5.598;2023-07-28T12:52:36;8.90;;;4.88;;
23716;SDS011;22094;52.130;5.598;2023-07-28T12:55:05;6.75;;;5.20;;
23716;SDS011;22094;52.130;5.598;2023-07-28T12:57:33;8.50;;;5.18;;
23716;SDS011;22094;52.130;5.598;2023-07-28T12:59:59;7.60;;;5.78;;
23716;SDS011;22094;52.130;5.598;2023-07-28T13:02:25;6.97;;;5.15;;
23716;SDS011;22094;52.130;5.598;2023-07-28T13:04:51;7.47;;;4.25;;
23716;SDS011;22094;52.130;5.598;2023-07-28T13:07:17;4.95;;;3.90;;
23716;SDS011;22094;52.130;5.598;2023-07-28T13:09:47;7.18;;;3.75;;
23716;SDS011;22094;52.130;5.598;2023-07-28T13:12:13;6.47;;;4.45;;
23716;SDS011;22094;52.130;5.598;2023-07-28T13:14:39;5.32;;;4.20;;
23716;SDS011;22094;52.130;5.598;2023-07-28T13:17:05;6.35;;;4.85;;
23716;SDS011;22094;52.130;5.598;2023-07-28T13:19:31;4.03;;;3.60;;
23716;SDS011;22094;52.130;5.598;2023-07-28T13:21:57;6.07;;;4.03;;
23716;SDS011;22094;52.130;5.598;2023-07-28T13:24:23;6.38;;;5.22;;
23716;SDS011;22094;52.130;5.598;2023-07-28T13:26:49;5.35;;;4.68;;
23716;SDS011;22094;52.130;5.598;2023-07-28T13:29:15;6.55;;;5.15;;
23716;SDS011;22094;52.130;5.598;2023-07-28T13:31:41;7.45;;;4.57;;
23716;SDS011;22094;52.130;5.598;2023-07-28T13:34:08;6.13;;;4.32;;
23716;SDS011;22094;52.130;5.598;2023-07-28T13:36:34;5.10;;;4.25;;
23716;SDS011;22094;52.130;5.598;2023-07-28T13:39:01;4.95;;;3.90;;
23716;SDS011;22094;52.130;5.598;2023-07-28T13:41:27;4.78;;;4.20;;
23716;SDS011;22094;52.130;5.598;2023-07-28T13:43:53;5.45;;;4.47;;
23716;SDS011;22094;52.130;5.598;2023-07-28T13:46:19;4.88;;;3.95;;
23716;SDS011;22094;52.130;5.598;2023-07-28T13:48:45;6.88;;;3.90;;
23716;SDS011;22094;52.130;5.598;2023-07-28T13:51:10;5.38;;;4.53;;
23716;SDS011;22094;52.130;5.598;2023-07-28T13:53:36;7.90;;;5.13;;
23716;SDS011;22094;52.130;5.598;2023-07-28T13:56:02;7.22;;;5.50;;
23716;SDS011;22094;52.130;5.598;2023-07-28T13:58:28;5.22;;;4.72;;
23716;SDS011;22094;52.130;5.598;2023-07-28T14:00:54;5.47;;;4.97;;
23716;SDS011;22094;52.130;5.598;2023-07-28T14:03:20;5.82;;;4.82;;
23716;SDS011;22094;52.130;5.598;2023-07-28T14:05:46;6.60;;;4.93;;
23716;SDS011;22094;52.130;5.598;2023-07-28T14:08:12;6.80;;;5.40;;
23716;SDS011;22094;52.130;5.598;2023-07-28T14:10:38;5.10;;;4.60;;
23716;SDS011;22094;52.130;5.598;2023-07-28T14:13:04;5.35;;;4.63;;
23716;SDS011;22094;52.130;5.598;2023-07-28T14:15:30;6.88;;;4.50;;
23716;SDS011;22094;52.130;5.598;2023-07-28T14:17:56;5.95;;;4.00;;
23716;SDS011;22094;52.130;5.598;2023-07-28T14:20:22;6.90;;;4.20;;
23716;SDS011;22094;52.130;5.598;2023-07-28T14:22:48;10.73;;;4.38;;
23716;SDS011;22094;52.130;5.598;2023-07-28T14:25:14;6.40;;;3.92;;
23716;SDS011;22094;52.130;5.598;2023-07-28T14:27:39;4.63;;;3.58;;
23716;SDS011;22094;52.130;5.598;2023-07-28T14:30:05;6.35;;;4.90;;
23716;SDS011;22094;52.130;5.598;2023-07-28T14:32:31;5.72;;;5.10;;
23716;SDS011;22094;52.130;5.598;2023-07-28T14:35:00;6.47;;;4.85;;
23716;SDS011;22094;52.130;5.598;2023-07-28T14:37:28;4.88;;;4.47;;
23716;SDS011;22094;52.130;5.598;2023-07-28T14:39:56;5.63;;;4.78;;
23716;SDS011;22094;52.130;5.598;2023-07-28T14:42:26;6.20;;;5.15;;
23716;SDS011;22094;52.130;5.598;2023-07-28T14:45:02;6.65;;;5.43;;
23716;SDS011;22094;52.130;5.598;2023-07-28T14:47:28;6.68;;;5.63;;